Addison, Illinois
Current Conditions -  °F | °C
As of 12:51 AM on Friday 31 Oct 2014 (Local Time) from KORD Reporting Station
Overcast Overcast  
Wind Chill: 43°   Ceiling: 4400
Heat Index: 47°   Visibility: 10mi
Dew Point: 36°   Wind: 9mph
Humidity: 66%   Direction: 280°W
Pressure: 30.02"   Gusts: NA
Location:  41.93°N, 87.99°W
Report Text: KORD 310551Z 28008KT 10SM BKN044 OVC060 08/02 A3002 RMK AO2 SLP167 T00830022 10089 20072 401060000 58009
Loading
Personal Weather Stations






























Interactive Weather Map New forecast layout! Learn more

10-Day Weather Forecast

Advertisements
Track Severe Weather on mobile